Terminal Aerodrome Forecast
Issued by NWS

Home | Current Version | Previous Version | Text Only | Print | Product List | Glossary On
Versions: 1 2 3 4 5 6 7 8 9 10 11 12 13 14 15 16
000
FTUS42 TJSJ 261720
TAFJMZ
TAF
TJMZ 261720Z 2618/2718 26008KT P6SM VCTS SCT030CB SCT050
      TEMPO 2618/2620 4SM -TSRA SCT025CB BKN040 BKN070
     FM262200 06006KT P6SM VCSH FEW030 SCT100
     FM271530 29010KT P6SM FEW030 SCT060
     FM271730 30013KT P6SM VCSH SCT025 BKN050
      AMD NOT SKED=

USA.gov is the U.S. government's official web portal to all federal, state and local government web resources and services.